createdAt,value
2023-02-16T00:00:08.038Z,11.37
2023-02-16T00:02:34.658Z,11.47
2023-02-16T00:05:01.281Z,13.10
2023-02-16T00:07:27.766Z,12.10
2023-02-16T00:09:54.379Z,11.10
2023-02-16T00:12:39.862Z,12.10
2023-02-16T00:15:15.967Z,11.97
2023-02-16T00:17:42.767Z,11.40
2023-02-16T00:20:18.467Z,11.33
2023-02-16T00:22:44.962Z,12.23
2023-02-16T00:25:11.569Z,12.30
2023-02-16T00:27:38.177Z,13.40
2023-02-16T00:30:14.715Z,13.50
2023-02-16T00:32:44.180Z,13.07
2023-02-16T00:35:15.207Z,12.97
2023-02-16T00:37:42.225Z,12.60
2023-02-16T00:40:09.241Z,14.23
2023-02-16T00:42:35.807Z,12.87
2023-02-16T00:45:02.340Z,11.03
2023-02-16T00:47:29.193Z,12.20
2023-02-16T00:49:56.863Z,12.80
2023-02-16T00:52:30.580Z,12.73
2023-02-16T00:54:57.621Z,12.53
2023-02-16T00:57:25.236Z,13.03
2023-02-16T00:59:57.058Z,12.80
2023-02-16T01:02:23.704Z,11.83
2023-02-16T01:04:50.362Z,13.47
2023-02-16T01:07:41.883Z,13.50
2023-02-16T01:10:27.412Z,12.53
2023-02-16T01:12:53.905Z,14.90
2023-02-16T01:15:22.816Z,13.50
2023-02-16T01:17:49.625Z,13.20
2023-02-16T01:20:17.773Z,13.77
2023-02-16T01:22:44.304Z,12.63
2023-02-16T01:25:11.043Z,15.17
2023-02-16T01:27:38.214Z,11.40
2023-02-16T01:30:06.417Z,14.23
2023-02-16T01:32:33.322Z,15.30
2023-02-16T01:34:59.895Z,14.13
2023-02-16T01:37:26.471Z,12.80
2023-02-16T01:39:52.947Z,14.00
2023-02-16T01:42:55.178Z,12.80
2023-02-16T01:45:34.704Z,13.10
2023-02-16T01:48:11.908Z,13.03
2023-02-16T01:50:45.069Z,13.17
2023-02-16T01:53:19.788Z,12.20
2023-02-16T01:55:48.132Z,12.70
2023-02-16T01:58:17.030Z,12.57
2023-02-16T02:00:49.639Z,14.00
2023-02-16T02:03:46.374Z,12.53
2023-02-16T02:06:14.578Z,13.20
2023-02-16T02:08:44.972Z,14.07
2023-02-16T02:11:14.240Z,12.67
2023-02-16T02:13:55.614Z,13.23
2023-02-16T02:16:24.593Z,13.10
2023-02-16T02:18:51.579Z,13.37
2023-02-16T02:22:06.929Z,13.87
2023-02-16T02:24:42.545Z,13.17
2023-02-16T02:27:26.665Z,13.30
2023-02-16T02:30:13.261Z,13.50
2023-02-16T02:32:51.586Z,13.07
2023-02-16T02:35:25.007Z,13.33
2023-02-16T02:37:57.605Z,14.20
2023-02-16T02:40:43.145Z,14.43
2023-02-16T02:43:14.271Z,15.30
2023-02-16T02:45:45.440Z,15.13
2023-02-16T02:48:14.900Z,15.47
2023-02-16T02:51:04.928Z,13.47
2023-02-16T02:53:38.509Z,13.90
2023-02-16T02:56:23.847Z,13.03
2023-02-16T02:59:12.300Z,13.40
2023-02-16T03:01:40.643Z,13.77
2023-02-16T03:04:08.218Z,13.87
2023-02-16T03:06:38.045Z,13.60
2023-02-16T03:09:06.665Z,14.07
2023-02-16T03:11:51.815Z,15.20
2023-02-16T03:14:39.998Z,12.27
2023-02-16T03:17:35.629Z,15.53
2023-02-16T03:20:23.075Z,13.30
2023-02-16T03:23:09.376Z,14.03
2023-02-16T03:25:55.874Z,13.50
2023-02-16T03:28:43.319Z,14.60
2023-02-16T03:31:11.790Z,14.77
2023-02-16T03:33:38.844Z,15.07
2023-02-16T03:36:05.627Z,15.20
2023-02-16T03:38:32.308Z,13.80
2023-02-16T03:40:58.831Z,13.80
2023-02-16T03:43:26.455Z,13.87
2023-02-16T03:45:53.100Z,13.90
2023-02-16T03:48:19.687Z,14.77
2023-02-16T03:50:46.185Z,14.23
2023-02-16T03:53:12.760Z,14.20
2023-02-16T03:55:43.722Z,15.03
2023-02-16T03:58:11.121Z,15.97
2023-02-16T04:00:37.997Z,14.23
2023-02-16T04:03:05.508Z,14.97
2023-02-16T04:05:32.273Z,15.00
2023-02-16T04:07:59.466Z,15.30
2023-02-16T04:10:25.943Z,13.97
2023-02-16T04:12:52.724Z,16.30
2023-02-16T04:15:21.080Z,15.27
2023-02-16T04:17:49.315Z,15.50
2023-02-16T04:20:17.555Z,17.00
2023-02-16T04:22:44.834Z,16.47
2023-02-16T04:25:11.806Z,14.97
2023-02-16T04:27:38.562Z,15.57
2023-02-16T04:30:05.942Z,15.70
2023-02-16T04:32:32.910Z,13.57
2023-02-16T04:34:59.502Z,16.60
2023-02-16T04:37:25.989Z,16.70
2023-02-16T04:39:52.592Z,16.00
2023-02-16T04:42:19.070Z,16.40
2023-02-16T04:44:45.577Z,16.20
2023-02-16T04:47:12.416Z,15.40
2023-02-16T04:49:38.906Z,16.17
2023-02-16T04:52:05.859Z,15.87
2023-02-16T04:54:32.736Z,16.33
2023-02-16T04:56:59.709Z,15.00
2023-02-16T04:59:26.346Z,16.73
2023-02-16T05:01:55.574Z,17.60
2023-02-16T05:04:22.111Z,16.50
2023-02-16T05:06:48.554Z,16.10
2023-02-16T05:09:15.032Z,17.33
2023-02-16T05:11:59.976Z,15.87
2023-02-16T05:14:46.887Z,17.13
2023-02-16T05:17:23.930Z,17.37
2023-02-16T05:19:54.784Z,17.33
2023-02-16T05:22:21.568Z,17.70
2023-02-16T05:24:48.542Z,18.00
2023-02-16T05:27:16.451Z,18.67
2023-02-16T05:29:43.183Z,16.13
2023-02-16T05:32:09.949Z,16.90
2023-02-16T05:34:36.725Z,17.00
2023-02-16T05:37:03.224Z,17.87
2023-02-16T05:39:29.949Z,19.60
2023-02-16T05:41:56.601Z,17.13
2023-02-16T05:44:23.115Z,19.67
2023-02-16T05:46:49.906Z,20.53
2023-02-16T05:49:17.052Z,18.57
2023-02-16T05:51:43.539Z,18.83
2023-02-16T05:54:17.132Z,19.33
2023-02-16T05:56:47.754Z,19.37
2023-02-16T05:59:14.863Z,20.27
2023-02-16T06:01:41.420Z,20.80
2023-02-16T06:04:08.738Z,21.50
2023-02-16T06:06:35.860Z,20.03
2023-02-16T06:09:03.104Z,19.77
2023-02-16T06:11:38.465Z,20.47
2023-02-16T06:14:15.888Z,19.63
2023-02-16T06:16:43.321Z,18.33
2023-02-16T06:19:10.248Z,19.03
2023-02-16T06:21:37.176Z,19.80
2023-02-16T06:24:03.870Z,18.70
2023-02-16T06:26:30.399Z,19.63
2023-02-16T06:28:56.921Z,21.17
2023-02-16T06:31:25.018Z,20.30
2023-02-16T06:33:51.610Z,20.43
2023-02-16T06:36:18.462Z,19.40
2023-02-16T06:38:45.500Z,20.83
2023-02-16T06:41:13.005Z,19.43
2023-02-16T06:43:39.902Z,19.60
2023-02-16T06:46:06.335Z,19.33
2023-02-16T06:48:32.757Z,18.90
2023-02-16T06:51:18.303Z,20.63
2023-02-16T06:53:45.105Z,19.37
2023-02-16T06:56:11.471Z,20.40
2023-02-16T06:58:37.930Z,20.27
2023-02-16T07:01:04.885Z,19.43
2023-02-16T07:03:31.482Z,20.37
2023-02-16T07:06:16.639Z,20.03
2023-02-16T07:08:43.019Z,20.20
2023-02-16T07:11:28.270Z,20.33
2023-02-16T07:13:54.974Z,21.97
2023-02-16T07:16:21.448Z,26.07
2023-02-16T07:19:06.909Z,21.83
2023-02-16T07:21:33.475Z,21.57
2023-02-16T07:23:59.858Z,20.10
2023-02-16T07:26:26.256Z,20.73
2023-02-16T07:28:52.702Z,19.67
2023-02-16T07:31:19.661Z,21.37
2023-02-16T07:33:46.170Z,20.10
2023-02-16T07:36:13.197Z,21.50
2023-02-16T07:38:41.808Z,21.43
2023-02-16T07:41:09.879Z,19.93
2023-02-16T07:43:37.656Z,21.63
2023-02-16T07:46:05.378Z,19.77
2023-02-16T07:48:31.857Z,20.53
2023-02-16T07:50:58.853Z,22.10
2023-02-16T07:53:25.253Z,20.77
2023-02-16T07:55:51.613Z,19.37
2023-02-16T07:58:30.062Z,19.77
2023-02-16T08:00:57.879Z,23.47
2023-02-16T08:03:24.499Z,20.13
2023-02-16T08:05:51.101Z,20.70
2023-02-16T08:08:17.497Z,21.23
2023-02-16T08:10:44.269Z,22.20
2023-02-16T08:13:10.642Z,21.57
2023-02-16T08:15:37.032Z,22.40
2023-02-16T08:18:03.832Z,20.23
2023-02-16T08:20:46.023Z,21.30
2023-02-16T08:23:16.722Z,19.33
2023-02-16T08:25:43.970Z,20.50
2023-02-16T08:28:14.971Z,21.00
2023-02-16T08:30:41.352Z,20.00
2023-02-16T08:33:07.694Z,20.47
2023-02-16T08:35:38.169Z,21.40
2023-02-16T08:38:09.118Z,21.77
2023-02-16T08:40:35.563Z,21.20
2023-02-16T08:43:01.941Z,21.07
2023-02-16T08:45:29.596Z,21.60
2023-02-16T08:47:56.032Z,21.17
2023-02-16T08:50:22.560Z,20.60
2023-02-16T08:52:49.062Z,20.70
2023-02-16T08:55:15.552Z,21.77
2023-02-16T08:57:41.938Z,20.57
2023-02-16T09:00:27.023Z,21.13
2023-02-16T09:02:53.932Z,19.30
2023-02-16T09:05:20.378Z,21.07
2023-02-16T09:07:46.811Z,20.30
2023-02-16T09:10:13.753Z,21.50
2023-02-16T09:12:40.125Z,21.47
2023-02-16T09:15:06.644Z,19.40
2023-02-16T09:17:33.050Z,20.80
2023-02-16T09:19:59.562Z,20.73
2023-02-16T09:22:26.935Z,20.67
2023-02-16T09:24:53.330Z,21.50
2023-02-16T09:27:20.069Z,21.17
2023-02-16T09:29:46.458Z,22.60
2023-02-16T09:32:15.296Z,21.80
2023-02-16T09:34:43.612Z,20.23
2023-02-16T09:37:10.234Z,21.40
2023-02-16T09:39:37.020Z,20.80
2023-02-16T09:42:15.565Z,20.90
2023-02-16T09:44:44.942Z,20.23
2023-02-16T09:47:18.440Z,20.60
2023-02-16T09:49:45.246Z,21.10
2023-02-16T09:52:18.625Z,20.70
2023-02-16T09:54:50.304Z,19.57
2023-02-16T09:57:22.974Z,19.37
2023-02-16T09:59:49.754Z,20.67
2023-02-16T10:02:16.443Z,20.30
2023-02-16T10:05:02.001Z,20.87
2023-02-16T10:07:34.203Z,20.40
2023-02-16T10:10:00.943Z,21.63
2023-02-16T10:12:31.310Z,20.63
2023-02-16T10:15:05.996Z,20.30
2023-02-16T10:17:38.724Z,21.10
2023-02-16T10:20:11.873Z,21.43
2023-02-16T10:22:40.997Z,21.77
2023-02-16T10:25:32.286Z,22.37
2023-02-16T10:28:05.113Z,20.13
2023-02-16T10:30:32.454Z,21.33
2023-02-16T10:33:01.940Z,21.97
2023-02-16T10:35:46.285Z,22.40
2023-02-16T10:38:18.172Z,22.33
2023-02-16T10:40:57.354Z,22.17
2023-02-16T10:43:23.938Z,23.40
2023-02-16T10:45:52.895Z,22.70
2023-02-16T10:48:23.238Z,21.23
2023-02-16T10:51:07.519Z,23.47
2023-02-16T10:53:37.136Z,21.90
2023-02-16T10:56:20.851Z,22.33
2023-02-16T10:58:47.623Z,22.50
2023-02-16T11:01:18.608Z,21.57
2023-02-16T11:03:47.634Z,22.47
2023-02-16T11:06:18.822Z,21.80
2023-02-16T11:08:51.156Z,21.80
2023-02-16T11:11:18.866Z,21.70
2023-02-16T11:13:48.852Z,23.13
2023-02-16T11:16:20.591Z,21.87
2023-02-16T11:18:49.667Z,21.70
2023-02-16T11:21:16.943Z,23.50
2023-02-16T11:23:44.034Z,22.50
2023-02-16T11:26:10.499Z,22.30
2023-02-16T11:28:42.778Z,21.80
2023-02-16T11:31:18.678Z,23.57
2023-02-16T11:34:00.110Z,21.43
2023-02-16T11:36:47.294Z,22.87
2023-02-16T11:39:14.080Z,21.50
2023-02-16T11:41:46.270Z,22.53
2023-02-16T11:44:31.316Z,23.43
2023-02-16T11:46:58.914Z,23.87
2023-02-16T11:49:30.878Z,22.40
2023-02-16T11:51:57.618Z,23.27
2023-02-16T11:54:24.028Z,23.13
2023-02-16T11:57:03.968Z,22.27
2023-02-16T11:59:34.174Z,22.70
2023-02-16T12:02:08.555Z,22.70
2023-02-16T12:04:49.085Z,22.33
2023-02-16T12:07:32.909Z,22.70
2023-02-16T12:10:00.033Z,23.87
2023-02-16T12:12:36.093Z,23.63
2023-02-16T12:15:19.466Z,24.07
2023-02-16T12:18:06.247Z,22.90
2023-02-16T12:20:50.135Z,22.60
2023-02-16T12:23:35.478Z,21.83
2023-02-16T12:26:21.437Z,21.10
2023-02-16T12:28:47.893Z,21.90
2023-02-16T12:31:22.156Z,22.50
2023-02-16T12:33:53.830Z,23.13
2023-02-16T12:36:25.460Z,23.70
2023-02-16T12:38:51.934Z,22.53
2023-02-16T12:41:37.328Z,22.97
2023-02-16T12:44:06.964Z,23.47
2023-02-16T12:46:39.280Z,22.70
2023-02-16T12:49:15.062Z,22.73
2023-02-16T12:51:45.878Z,22.70
2023-02-16T12:54:29.957Z,22.37
2023-02-16T12:57:12.482Z,21.33
2023-02-16T12:59:43.794Z,21.50
2023-02-16T13:02:36.535Z,22.10
2023-02-16T13:05:08.901Z,21.23
2023-02-16T13:07:35.270Z,20.00
2023-02-16T13:10:04.226Z,23.10
2023-02-16T13:12:37.268Z,23.20
2023-02-16T13:15:13.171Z,21.57
2023-02-16T13:17:43.211Z,22.87
2023-02-16T13:20:17.325Z,22.67
2023-02-16T13:22:53.938Z,22.97
2023-02-16T13:25:35.671Z,21.27
2023-02-16T13:28:24.712Z,21.30
2023-02-16T13:31:22.335Z,20.60
2023-02-16T13:34:00.843Z,20.77
2023-02-16T13:36:38.964Z,21.13
2023-02-16T13:39:20.501Z,21.10
2023-02-16T13:41:55.499Z,22.60
2023-02-16T13:44:23.661Z,20.67
2023-02-16T13:46:52.712Z,23.70
2023-02-16T13:49:42.170Z,22.13
2023-02-16T13:52:09.930Z,21.67
2023-02-16T13:54:39.859Z,19.97
2023-02-16T13:57:11.925Z,21.97
2023-02-16T13:59:38.275Z,20.73
2023-02-16T14:02:10.964Z,21.43
2023-02-16T14:04:37.425Z,20.83
2023-02-16T14:07:04.648Z,22.63
2023-02-16T14:09:33.539Z,23.50
2023-02-16T14:12:02.972Z,22.10
2023-02-16T14:14:38.533Z,22.13
2023-02-16T14:17:14.277Z,21.90
2023-02-16T14:19:51.734Z,22.10
2023-02-16T14:22:21.249Z,21.27
2023-02-16T14:24:58.465Z,22.30
2023-02-16T14:27:43.205Z,23.30
2023-02-16T14:30:14.470Z,21.47
2023-02-16T14:32:45.812Z,22.20
2023-02-16T14:35:20.696Z,21.90
2023-02-16T14:37:55.459Z,21.60
2023-02-16T14:40:38.582Z,21.70
2023-02-16T14:43:11.795Z,22.87
2023-02-16T14:45:49.109Z,21.07
2023-02-16T14:48:22.404Z,22.00
2023-02-16T14:51:10.004Z,21.20
2023-02-16T14:53:55.505Z,21.93
2023-02-16T14:56:28.426Z,22.30
2023-02-16T14:58:57.787Z,22.00
2023-02-16T15:01:24.911Z,21.90
2023-02-16T15:03:54.400Z,23.13
2023-02-16T15:06:23.116Z,21.77
2023-02-16T15:08:56.946Z,21.67
2023-02-16T15:11:31.059Z,19.93
2023-02-16T15:14:05.572Z,23.50
2023-02-16T15:16:32.503Z,21.20
2023-02-16T15:19:02.374Z,23.50
2023-02-16T15:21:30.511Z,21.83
2023-02-16T15:23:58.328Z,21.43
2023-02-16T15:26:26.399Z,22.03
2023-02-16T15:28:53.029Z,22.70
2023-02-16T15:31:23.643Z,23.63
2023-02-16T15:33:57.892Z,23.07
2023-02-16T15:36:31.694Z,22.07
2023-02-16T15:39:05.463Z,22.27
2023-02-16T15:41:36.314Z,22.63
2023-02-16T15:44:03.995Z,22.40
2023-02-16T15:46:38.376Z,22.93
2023-02-16T15:49:20.422Z,23.37
2023-02-16T15:51:47.680Z,23.30
2023-02-16T15:54:20.869Z,22.63
2023-02-16T15:56:48.322Z,23.50
2023-02-16T15:59:35.361Z,22.90
2023-02-16T16:02:22.149Z,21.37
2023-02-16T16:04:48.550Z,24.10
2023-02-16T16:07:17.341Z,23.17
2023-02-16T16:09:45.135Z,23.93
2023-02-16T16:12:13.340Z,22.57
2023-02-16T16:14:42.618Z,22.83
2023-02-16T16:17:13.392Z,23.93
2023-02-16T16:19:40.242Z,26.60
2023-02-16T16:22:26.275Z,24.53
2023-02-16T16:24:52.646Z,23.47
2023-02-16T16:27:28.260Z,24.47
2023-02-16T16:30:09.636Z,25.03
2023-02-16T16:32:37.643Z,24.30
2023-02-16T16:35:30.495Z,26.17
2023-02-16T16:37:56.884Z,25.97
2023-02-16T16:40:25.790Z,26.40
2023-02-16T16:43:04.580Z,26.67
2023-02-16T16:45:39.366Z,25.73
2023-02-16T16:48:15.255Z,27.37
2023-02-16T16:50:42.576Z,25.30
2023-02-16T16:53:38.112Z,24.83
2023-02-16T16:56:08.931Z,26.40
2023-02-16T16:58:35.676Z,26.30
2023-02-16T17:01:02.262Z,27.27
2023-02-16T17:03:30.526Z,25.50
2023-02-16T17:05:57.696Z,25.50
2023-02-16T17:08:24.080Z,23.30
2023-02-16T17:10:50.515Z,24.60
2023-02-16T17:13:19.674Z,24.77
2023-02-16T17:15:49.180Z,26.23
2023-02-16T17:18:17.031Z,24.70
2023-02-16T17:20:44.605Z,26.17
2023-02-16T17:23:11.739Z,25.60
2023-02-16T17:25:38.752Z,25.00
2023-02-16T17:28:05.521Z,25.77
2023-02-16T17:30:32.521Z,24.07
2023-02-16T17:32:59.449Z,25.33
2023-02-16T17:35:25.990Z,30.23
2023-02-16T17:37:52.408Z,29.00
2023-02-16T17:40:21.293Z,27.10
2023-02-16T17:42:48.070Z,25.13
2023-02-16T17:45:15.621Z,25.73
2023-02-16T17:47:45.435Z,27.93
2023-02-16T17:50:12.828Z,33.70
2023-02-16T17:52:39.477Z,28.00
2023-02-16T17:55:06.400Z,25.97
2023-02-16T17:57:33.166Z,33.77
2023-02-16T17:59:59.563Z,32.40
2023-02-16T18:02:27.744Z,27.73
2023-02-16T18:04:54.201Z,28.30
2023-02-16T18:07:20.885Z,29.60
2023-02-16T18:09:48.442Z,27.67
2023-02-16T18:12:15.196Z,38.80
2023-02-16T18:14:41.632Z,27.33
2023-02-16T18:17:08.051Z,26.60
2023-02-16T18:19:34.456Z,27.43
2023-02-16T18:22:00.939Z,27.77
2023-02-16T18:24:27.585Z,26.33
2023-02-16T18:26:55.374Z,24.67
2023-02-16T18:29:22.036Z,30.67
2023-02-16T18:31:48.561Z,27.70
2023-02-16T18:34:15.446Z,26.83
2023-02-16T18:36:41.969Z,27.00
2023-02-16T18:39:09.271Z,25.90
2023-02-16T18:41:36.045Z,27.90
2023-02-16T18:44:03.204Z,25.80
2023-02-16T18:46:29.655Z,25.20
2023-02-16T18:48:56.095Z,26.27
2023-02-16T18:51:25.744Z,26.17
2023-02-16T18:53:52.143Z,28.63
2023-02-16T18:56:18.979Z,25.00
2023-02-16T18:58:45.580Z,27.73
2023-02-16T19:01:16.465Z,28.43
2023-02-16T19:03:43.181Z,28.80
2023-02-16T19:06:09.846Z,27.47
2023-02-16T19:08:36.272Z,26.00
2023-02-16T19:11:03.073Z,37.40
2023-02-16T19:13:29.494Z,32.23
2023-02-16T19:15:56.868Z,29.40
2023-02-16T19:18:24.196Z,25.73
2023-02-16T19:20:50.815Z,28.60
2023-02-16T19:23:17.671Z,29.57
2023-02-16T19:25:44.295Z,30.60
2023-02-16T19:28:10.692Z,27.57
2023-02-16T19:30:37.123Z,27.13
2023-02-16T19:33:03.706Z,27.27
2023-02-16T19:35:30.138Z,28.67
2023-02-16T19:37:56.862Z,27.20
2023-02-16T19:40:23.266Z,28.47
2023-02-16T19:42:49.698Z,28.60
2023-02-16T19:45:16.149Z,29.93
2023-02-16T19:47:42.527Z,26.83
2023-02-16T19:50:09.085Z,26.40
2023-02-16T19:52:35.624Z,29.60
2023-02-16T19:55:01.978Z,27.10
2023-02-16T19:57:29.038Z,26.33
2023-02-16T19:59:55.455Z,28.60
2023-02-16T20:02:21.894Z,28.90
2023-02-16T20:04:48.334Z,26.53
2023-02-16T20:07:14.745Z,26.17
2023-02-16T20:09:41.144Z,27.70
2023-02-16T20:12:07.612Z,27.13
2023-02-16T20:14:34.013Z,27.47
2023-02-16T20:17:00.449Z,27.07
2023-02-16T20:19:26.904Z,27.53
2023-02-16T20:21:53.304Z,27.03
2023-02-16T20:24:20.386Z,30.40
2023-02-16T20:26:49.336Z,28.53
2023-02-16T20:29:16.791Z,27.73
2023-02-16T20:31:47.254Z,29.53
2023-02-16T20:34:13.772Z,29.33
2023-02-16T20:36:40.769Z,31.10
2023-02-16T20:39:07.469Z,29.87
2023-02-16T20:41:35.288Z,28.83
2023-02-16T20:44:02.946Z,28.30
2023-02-16T20:46:29.447Z,29.60
2023-02-16T20:48:55.872Z,29.17
2023-02-16T20:51:22.739Z,29.60
2023-02-16T20:53:49.352Z,28.40
2023-02-16T20:56:17.112Z,26.90
2023-02-16T20:58:44.754Z,28.70
2023-02-16T21:01:15.948Z,28.70
2023-02-16T21:03:42.787Z,29.30
2023-02-16T21:06:09.542Z,28.23
2023-02-16T21:08:36.444Z,27.87
2023-02-16T21:11:03.305Z,26.97
2023-02-16T21:13:29.989Z,27.83
2023-02-16T21:15:56.459Z,27.97
2023-02-16T21:18:22.904Z,28.00
2023-02-16T21:20:49.367Z,25.00
2023-02-16T21:23:16.040Z,26.97
2023-02-16T21:25:42.620Z,26.07
2023-02-16T21:28:09.077Z,28.00
2023-02-16T21:30:35.505Z,26.40
2023-02-16T21:33:01.869Z,27.80
2023-02-16T21:35:28.364Z,27.60
2023-02-16T21:37:55.073Z,30.00
2023-02-16T21:40:40.085Z,26.87
2023-02-16T21:43:06.509Z,26.10
2023-02-16T21:45:32.926Z,27.60
2023-02-16T21:48:18.233Z,26.23
2023-02-16T21:50:44.619Z,26.83
2023-02-16T21:53:11.004Z,27.90
2023-02-16T21:55:56.933Z,28.10
2023-02-16T21:58:26.592Z,29.37
2023-02-16T22:00:53.750Z,28.90
2023-02-16T22:03:20.622Z,27.90
2023-02-16T22:05:47.393Z,28.30
2023-02-16T22:08:14.652Z,28.50
2023-02-16T22:10:41.114Z,27.83
2023-02-16T22:13:07.606Z,29.60
2023-02-16T22:15:35.295Z,29.70
2023-02-16T22:18:01.710Z,28.40
2023-02-16T22:20:28.109Z,26.50
2023-02-16T22:22:54.555Z,26.60
2023-02-16T22:25:22.930Z,25.43
2023-02-16T22:27:49.755Z,24.60
2023-02-16T22:30:16.270Z,24.10
2023-02-16T22:32:42.661Z,23.77
2023-02-16T22:35:09.074Z,23.87
2023-02-16T22:37:35.436Z,24.43
2023-02-16T22:40:01.884Z,24.30
2023-02-16T22:42:28.785Z,23.63
2023-02-16T22:44:55.344Z,21.03
2023-02-16T22:47:21.755Z,22.87
2023-02-16T22:49:48.168Z,22.80
2023-02-16T22:52:14.545Z,23.67
2023-02-16T22:54:40.968Z,22.83
2023-02-16T22:57:07.443Z,22.90
2023-02-16T22:59:34.015Z,25.77
2023-02-16T23:02:00.441Z,24.23
2023-02-16T23:04:27.437Z,24.30
2023-02-16T23:06:53.811Z,23.77
2023-02-16T23:09:21.140Z,21.90
2023-02-16T23:11:48.132Z,22.40
2023-02-16T23:14:17.566Z,22.37
2023-02-16T23:16:45.486Z,21.10
2023-02-16T23:19:13.612Z,20.93
2023-02-16T23:21:40.426Z,21.03
2023-02-16T23:24:06.871Z,19.13
2023-02-16T23:26:33.341Z,18.90
2023-02-16T23:29:00.881Z,19.60
2023-02-16T23:31:30.375Z,18.60
2023-02-16T23:33:57.083Z,19.07
2023-02-16T23:36:23.496Z,17.30
2023-02-16T23:38:49.902Z,17.33
2023-02-16T23:41:16.339Z,17.70
2023-02-16T23:43:42.781Z,17.67
2023-02-16T23:46:09.901Z,18.70
2023-02-16T23:48:36.561Z,16.80
2023-02-16T23:51:02.931Z,17.90
2023-02-16T23:53:29.334Z,17.97
2023-02-16T23:56:14.098Z,19.00
2023-02-16T23:58:41.454Z,18.03
